Monday, December 18, 2017, 5:22 PM EST
Back to Local

KCBE, Cumberland, Greater Cumberland Regional Airport

Location: Wiley Ford, MD, United States Lat: 39.615
Local Time: 5:22 PM EST (22:22 GMT) Lon: -78.761
Time Zone: US/Eastern Elev: 774 ft

Show me the last for .
Show Decoded

2017-12-18 17:06 METAR KCBE 182206Z AUTO 25012G16KT 10SM OVC031 11/04 A3002 RMK AO1 =
2017-12-18 16:46 METAR KCBE 182146Z AUTO 00000KT 10SM OVC033 10/05 A3002 RMK AO1 =
2017-12-18 16:26 METAR KCBE 182126Z AUTO 21005KT 10SM OVC031 10/05 A3002 RMK AO1 =
2017-12-18 16:06 METAR KCBE 182106Z AUTO 17003KT 10SM OVC031 10/05 A3002 RMK AO1 =
2017-12-18 15:46 METAR KCBE 182046Z AUTO 00000KT 10SM OVC031 10/05 A3001 RMK AO1 =
2017-12-18 15:26 METAR KCBE 182026Z AUTO 17004KT 10SM OVC029 10/05 A3001 RMK AO1 =
2017-12-18 15:06 METAR KCBE 182006Z AUTO 16004KT 10SM OVC027 10/05 A3002 RMK AO1 =
2017-12-18 14:46 METAR KCBE 181946Z AUTO 17006KT 10SM BKN025 BKN032 10/05 A3002 RMK AO1 =
2017-12-18 14:26 METAR KCBE 181926Z AUTO 17004KT 10SM OVC025 10/05 A3002 RMK AO1 =
2017-12-18 14:06 METAR KCBE 181906Z AUTO 17004KT 10SM OVC025 10/05 A3003 RMK AO1 =
2017-12-18 13:46 METAR KCBE 181846Z AUTO 17005KT 10SM BKN025 09/05 A3004 RMK AO1 =
2017-12-18 13:26 METAR KCBE 181826Z AUTO 21008KT 10SM BKN025 09/04 A3005 RMK AO1 =
2017-12-18 13:06 METAR KCBE 181806Z AUTO 26011G16KT 10SM BKN025 09/04 A3006 RMK AO1 =
2017-12-18 12:46 METAR KCBE 181746Z AUTO 23007KT 10SM BKN027 10/04 A3006 RMK AO1 =
2017-12-18 12:26 METAR KCBE 181726Z AUTO 22006KT 10SM BKN027 09/04 A3005 RMK AO1 =
2017-12-18 12:06 METAR KCBE 181706Z AUTO 00000KT 10SM BKN025 08/03 A3006 RMK AO1 =
2017-12-18 11:46 METAR KCBE 181646Z AUTO 31003KT 10SM BKN025 08/02 A3007 RMK AO1 =
2017-12-18 11:26 METAR KCBE 181626Z AUTO 00000KT 10SM BKN025 07/02 A3008 RMK AO1 =
2017-12-18 11:06 METAR KCBE 181606Z AUTO 00000KT 10SM BKN023 06/02 A3010 RMK AO1 =
2017-12-18 10:46 METAR KCBE 181546Z AUTO 00000KT 7SM OVC023 05/02 A3012 RMK AO1 =
2017-12-18 10:26 METAR KCBE 181526Z AUTO 00000KT 7SM BKN023 05/02 A3013 RMK AO1 =
2017-12-18 10:06 METAR KCBE 181506Z AUTO 00000KT 7SM OVC023 04/02 A3014 RMK AO1 =
2017-12-18 09:46 METAR KCBE 181446Z AUTO 00000KT 7SM BKN025 03/02 A3014 RMK AO1 =
2017-12-18 09:26 METAR KCBE 181426Z AUTO 00000KT 7SM OVC025 03/02 A3014 RMK AO1 =
2017-12-18 09:06 METAR KCBE 181406Z AUTO 00000KT 7SM OVC025 03/01 A3014 RMK AO1 =
2017-12-18 08:46 METAR KCBE 181346Z AUTO 00000KT 7SM OVC025 03/02 A3014 RMK AO1 =
2017-12-18 08:26 METAR KCBE 181326Z AUTO 00000KT 7SM BKN025 03/02 A3014 RMK AO1 =
2017-12-18 08:06 METAR KCBE 181306Z AUTO 00000KT 7SM OVC025 02/01 A3014 RMK AO1 =
2017-12-18 07:46 METAR KCBE 181246Z AUTO 00000KT 7SM BKN025 OVC044 02/01 A3014 RMK AO1 =
2017-12-18 07:26 METAR KCBE 181226Z AUTO 00000KT 7SM SCT023 OVC044 02/01 A3014 RMK AO1 =
2017-12-18 07:06 METAR KCBE 181206Z AUTO 00000KT 7SM SCT023 OVC048 02/01 A3015 RMK AO1 =
2017-12-18 06:46 METAR KCBE 181146Z AUTO 00000KT 7SM OVC048 02/01 A3014 RMK AO1 =
2017-12-18 06:26 METAR KCBE 181126Z AUTO 00000KT 7SM OVC050 02/01 A3014 RMK AO1 =
2017-12-18 06:06 METAR KCBE 181106Z AUTO 00000KT 7SM OVC050 02/01 A3014 RMK AO1 =
2017-12-18 05:46 METAR KCBE 181046Z AUTO 00000KT 7SM SCT025 OVC050 02/01 A3014 RMK AO1 =
2017-12-18 05:26 METAR KCBE 181026Z AUTO 00000KT 7SM SCT025 OVC055 02/01 A3013 RMK AO1 =
2017-12-18 05:06 METAR KCBE 181006Z AUTO 00000KT 7SM SCT027 OVC055 02/01 A3014 RMK AO1 =
2017-12-18 04:46 METAR KCBE 180946Z AUTO 00000KT 7SM SCT027 OVC055 02/01 A3013 RMK AO1 =
2017-12-18 04:26 METAR KCBE 180926Z AUTO 00000KT 7SM SCT028 SCT045 OVC065 02/01 A3014 RMK AO1 =
2017-12-18 04:06 METAR KCBE 180906Z AUTO 00000KT 7SM SCT040 OVC065 02/01 A3015 RMK AO1 =
2017-12-18 03:46 METAR KCBE 180846Z AUTO 00000KT 10SM SCT033 SCT040 OVC065 02/01 A3014 RMK AO1 =
2017-12-18 03:26 METAR KCBE 180826Z AUTO 00000KT 7SM SCT027 BKN041 OVC065 02/01 A3014 RMK AO1 =
2017-12-18 03:06 METAR KCBE 180806Z AUTO 00000KT 7SM SCT027 SCT041 OVC050 02/01 A3015 RMK AO1 =
2017-12-18 02:46 METAR KCBE 180746Z AUTO 00000KT 7SM SCT037 OVC050 02/01 A3015 RMK AO1 =
2017-12-18 02:26 METAR KCBE 180726Z AUTO 00000KT 7SM BKN037 OVC050 02/01 A3015 RMK AO1 =
2017-12-18 02:06 METAR KCBE 180706Z AUTO 00000KT 7SM SCT037 OVC050 02/01 A3015 RMK AO1 =
2017-12-18 01:46 METAR KCBE 180646Z AUTO 00000KT 7SM SCT033 BKN055 OVC080 02/01 A3014 RMK AO1 =
2017-12-18 01:26 METAR KCBE 180626Z AUTO 00000KT 7SM OVC033 02/01 A3014 RMK AO1 =
2017-12-18 01:06 METAR KCBE 180606Z AUTO 00000KT 7SM BKN035 BKN040 OVC046 02/01 A3014 RMK AO1 =
2017-12-18 00:46 METAR KCBE 180546Z AUTO 00000KT 7SM OVC046 02/01 A3015 RMK AO1 =
2017-12-18 00:26 METAR KCBE 180526Z AUTO 00000KT 10SM OVC048 02/01 A3016 RMK AO1 =
2017-12-18 00:06 METAR KCBE 180506Z AUTO 00000KT 7SM SCT045 OVC050 02/01 A3017 RMK AO1 =
2017-12-17 23:46 METAR KCBE 180446Z AUTO 00000KT 7SM OVC050 02/01 A3017 RMK AO1 =
2017-12-17 23:26 METAR KCBE 180426Z AUTO 00000KT 7SM OVC050 02/01 A3017 RMK AO1 =
2017-12-17 23:06 METAR KCBE 180406Z AUTO 00000KT 7SM OVC050 02/01 A3017 RMK AO1 =
2017-12-17 22:46 METAR KCBE 180346Z AUTO 00000KT 7SM BKN050 02/01 A3017 RMK AO1 =
2017-12-17 22:26 METAR KCBE 180326Z AUTO 00000KT 10SM SCT050 02/01 A3017 RMK AO1 =
2017-12-17 22:06 METAR KCBE 180306Z AUTO 00000KT 10SM BKN060 02/01 A3017 RMK AO1 =
2017-12-17 21:46 METAR KCBE 180246Z AUTO 00000KT 7SM SCT060 BKN075 02/01 A3018 RMK AO1 =
2017-12-17 21:26 METAR KCBE 180226Z AUTO 00000KT 10SM SCT075 SCT085 03/01 A3018 RMK AO1 =
2017-12-17 21:06 METAR KCBE 180206Z AUTO 34003KT 10SM SCT075 SCT085 02/01 A3018 RMK AO1 =
2017-12-17 20:46 METAR KCBE 180146Z AUTO 36003KT 10SM CLR 03/01 A3018 RMK AO1 =
2017-12-17 20:26 METAR KCBE 180126Z AUTO 02004KT 10SM SCT075 03/01 A3019 RMK AO1 =
2017-12-17 20:06 METAR KCBE 180106Z AUTO 33003KT 10SM SCT075 02/01 A3019 RMK AO1 =
2017-12-17 19:46 METAR KCBE 180046Z AUTO 00000KT 10SM CLR 02/01 A3018 RMK AO1 =
2017-12-17 19:26 METAR KCBE 180026Z AUTO 00000KT 10SM SCT090 02/01 A3019 RMK AO1 =
2017-12-17 19:06 METAR KCBE 180006Z AUTO 00000KT 7SM SCT090 02/01 A3019 RMK AO1 =
2017-12-17 18:46 METAR KCBE 172346Z AUTO 00000KT 7SM CLR 02/00 A3019 RMK AO1 =
2017-12-17 18:26 METAR KCBE 172326Z AUTO 00000KT 10SM CLR 03/01 A3020 RMK AO1 =
2017-12-17 18:06 METAR KCBE 172306Z AUTO 00000KT 10SM CLR 03/00 A3020 RMK AO1 =
2017-12-17 17:46 METAR KCBE 172246Z AUTO 35004KT 10SM CLR 03/01 A3020 RMK AO1 =
2017-12-17 17:26 METAR KCBE 172226Z AUTO 32004KT 10SM CLR 03/00 A3022 RMK AO1 =

Support USWX by starting your Amazon purchase here.